Time;durP1;ratioP1;P1;durP2;ratioP2;P2;SDS_P1;SDS_P2;PMS_P1;PMS_P2;Temp;Humidity;BMP_temperature;BMP_pressure;BME280_temperature;BME280_humidity;BME280_pressure;Samples;Min_cycle;Max_cycle;Signal;HPM_P1;HPM_P2
2022/05/01 00:12:14;;;;;;;9.40;5.28;;;11.70;99.90;;;;;;5017737;23;20065;-82
2022/05/01 01:05:44;;;;;;;17.88;8.23;;;11.00;99.90;;;;;;5083062;23;20048;-82
2022/05/01 01:08:25;;;;;;;11.80;6.40;;;12.20;99.90;;;;;;4888961;29;20066;-81
2022/05/01 01:11:03;;;;;;;14.90;6.35;;;11.30;99.90;;;;;;4869142;29;20033;-81
2022/05/01 01:13:32;;;;;;;11.10;5.50;;;11.10;99.90;;;;;;4863778;29;20022;-81
2022/05/01 01:21:21;;;;;;;14.98;6.82;;;10.70;99.90;;;;;;4931645;23;20072;-81
2022/05/01 01:24:05;;;;;;;13.02;5.65;;;12.10;99.90;;;;;;4883356;29;20024;-81
2022/05/01 01:26:34;;;;;;;14.88;6.82;;;11.00;99.90;;;;;;4881070;29;20021;-81
2022/05/01 01:31:40;;;;;;;14.90;6.80;;;10.40;99.90;;;;;;4902479;23;20182;-81
2022/05/01 01:31:50;;;;;;;10.95;6.72;;;12.50;99.90;;;;;;4920174;23;20061;-80
2022/05/01 01:34:36;;;;;;;11.82;6.50;;;10.80;99.90;;;;;;4892864;29;20005;-79
2022/05/01 01:39:41;;;;;;;13.75;7.47;;;10.30;99.90;;;;;;5075242;23;20067;-82
2022/05/01 01:42:21;;;;;;;14.95;7.63;;;10.70;99.90;;;;;;4879845;29;20051;-81
2022/05/01 01:44:47;;;;;;;11.88;6.88;;;10.30;99.90;;;;;;4860007;29;20053;-80
2022/05/01 01:47:18;;;;;;;15.68;7.47;;;10.20;99.90;;;;;;4875874;29;20066;-79
2022/05/01 01:49:46;;;;;;;20.98;7.65;;;10.10;99.90;;;;;;4861743;29;20039;-80
2022/05/01 01:52:12;;;;;;;16.30;7.07;;;10.20;99.90;;;;;;5006207;24;20060;-80
2022/05/01 01:54:41;;;;;;;11.32;6.38;;;10.00;99.90;;;;;;4877588;29;20108;-81
2022/05/01 01:57:12;;;;;;;12.38;6.88;;;10.00;99.90;;;;;;4895000;29;20027;-80
2022/05/01 01:59:37;;;;;;;11.73;6.00;;;10.20;99.90;;;;;;4880565;23;20157;-80
2022/05/01 02:02:15;;;;;;;;;;;;;;;;;;;;;
2022/05/01 02:04:48;;;;;;;10.88;6.60;;;10.30;99.90;;;;;;4855503;29;20033;-81
2022/05/01 02:13:11;;;;;;;9.50;5.37;;;9.80;99.90;;;;;;5635186;23;20060;-81
2022/05/01 02:15:49;;;;;;;13.43;5.57;;;6.20;99.90;;;;;;4880104;29;20040;-80
2022/05/01 02:18:15;;;;;;;12.45;6.45;;;9.70;99.90;;;;;;4879099;24;20087;-80
2022/05/01 02:23:34;;;;;;;9.32;5.15;;;9.60;99.90;;;;;;4894056;23;20123;-81
2022/05/01 02:26:15;;;;;;;9.52;4.70;;;9.60;99.90;;;;;;4898877;29;20028;-80
2022/05/01 02:29:12;;;;;;;6.97;3.85;;;9.30;99.90;;;;;;4896936;23;20053;-80
2022/05/01 02:32:00;;;;;;;8.15;4.15;;;10.70;99.90;;;;;;4877260;29;20100;-81
2022/05/01 02:37:19;;;;;;;7.07;4.00;;;9.30;99.90;;;;;;5098530;23;20060;-81
2022/05/01 02:42:29;;;;;;;7.57;4.13;;;9.10;99.90;;;;;;4901362;23;20063;-81
2022/05/01 02:47:48;;;;;;;7.53;4.57;;;9.10;99.90;;;;;;5211103;23;20064;-81
2022/05/01 02:50:21;;;;;;;9.07;4.30;;;9.10;99.90;;;;;;4878282;29;20076;-81
2022/05/01 03:00:57;;;;;;;8.55;4.22;;;9.20;99.90;;;;;;4884094;23;20056;-80
2022/05/01 03:03:48;;;;;;;6.30;3.50;;;9.80;99.90;;;;;;4858735;29;20077;-81
2022/05/01 03:06:23;;;;;;;6.05;3.60;;;7.50;99.90;;;;;;4845571;29;20029;-80
2022/05/01 03:13:52;;;;;;;5.53;3.35;;;9.00;99.90;;;;;;4863828;23;20057;-80
2022/05/01 03:16:20;;;;;;;6.38;4.05;;;9.00;99.90;;;;;;4872776;24;20044;-80
2022/05/01 03:24:18;;;;;;;7.27;3.93;;;9.10;99.90;;;;;;4867612;27;20037;-80
2022/05/01 03:29:31;;;;;;;8.70;4.18;;;9.10;99.90;;;;;;4937237;23;20062;-81
2022/05/01 03:32:19;;;;;;;6.60;3.75;;;9.50;99.90;;;;;;4876688;23;20033;-81
2022/05/01 03:34:45;;;;;;;6.30;3.88;;;10.50;99.90;;;;;;4873477;24;20092;-81
2022/05/01 03:37:11;;;;;;;7.20;4.35;;;6.30;99.90;;;;;;4890183;29;20041;-83
2022/05/01 03:39:43;;;;;;;8.18;4.10;;;9.50;99.90;;;;;;4891288;29;20055;-79
2022/05/01 03:42:09;;;;;;;7.30;4.13;;;8.80;99.90;;;;;;4891430;29;20036;-79
2022/05/01 03:44:34;;;;;;;6.72;3.58;;;8.90;99.90;;;;;;4888751;29;20025;-79
2022/05/01 03:47:00;;;;;;;6.15;4.22;;;9.30;99.90;;;;;;4888383;29;20029;-80
2022/05/01 03:49:26;;;;;;;8.82;4.82;;;8.80;99.90;;;;;;4890798;29;20124;-81
2022/05/01 03:51:52;;;;;;;6.95;4.13;;;8.70;99.90;;;;;;4889650;29;20531;-81
2022/05/01 03:54:31;;;;;;;6.90;4.20;;;9.00;99.90;;;;;;4893355;29;20080;-80
2022/05/01 03:56:57;;;;;;;6.97;4.15;;;8.90;99.90;;;;;;4892136;29;20052;-80
2022/05/01 03:59:25;;;;;;;6.68;4.03;;;8.80;99.90;;;;;;4897502;23;20048;-80
2022/05/01 04:01:51;;;;;;;7.50;4.20;;;9.10;99.90;;;;;;4890014;29;20060;-80
2022/05/01 04:07:20;;;;;;;8.18;4.70;;;8.90;99.90;;;;;;4875516;29;20598;-80
2022/05/01 04:09:58;;;;;;;7.68;4.55;;;8.70;99.90;;;;;;4886377;23;20062;-80
2022/05/01 04:12:24;;;;;;;9.88;4.85;;;8.80;99.90;;;;;;4854398;29;20055;-81
2022/05/01 04:14:52;;;;;;;7.72;4.65;;;8.90;99.90;;;;;;4854092;29;20042;-80
2022/05/01 04:17:30;;;;;;;9.55;5.07;;;8.80;99.90;;;;;;4854903;29;20033;-80
2022/05/01 04:20:02;;;;;;;16.95;6.95;;;8.70;99.90;;;;;;4852842;29;20026;-80
2022/05/01 04:22:56;;;;;;;14.57;7.00;;;9.30;99.90;;;;;;4854673;29;20045;-80
2022/05/01 04:25:40;;;;;;;20.48;9.00;;;8.50;99.90;;;;;;4855983;29;20099;-80
2022/05/01 04:28:14;;;;;;;11.40;5.47;;;8.90;99.90;;;;;;4859097;29;20086;-79
2022/05/01 04:30:42;;;;;;;8.15;4.90;;;9.00;99.90;;;;;;4859511;29;20110;-80
2022/05/01 04:33:23;;;;;;;12.40;6.45;;;9.00;99.90;;;;;;4860794;29;20030;-80
2022/05/01 04:35:55;;;;;;;12.50;5.85;;;9.00;99.90;;;;;;5035258;23;20214;-80
2022/05/01 04:38:25;;;;;;;8.57;5.05;;;9.00;99.90;;;;;;4883787;29;20052;-80
2022/05/01 04:50:06;;;;;;;8.20;3.80;;;9.20;99.90;;;;;;5457669;23;20060;-80
2022/05/01 04:52:50;;;;;;;8.95;4.28;;;10.90;99.90;;;;;;4893669;29;20031;-79
2022/05/01 05:03:20;;;;;;;23.70;8.20;;;9.60;99.90;;;;;;4950340;23;20468;-82
2022/05/01 05:20:33;;;;;;;14.53;7.13;;;11.70;99.90;;;;;;4825053;27;20389;-81
2022/05/01 05:24:23;;;;;;;12.20;6.65;;;11.20;99.90;;;;;;4881591;23;20029;-82
2022/05/01 05:26:51;;;;;;;14.60;5.95;;;11.90;99.90;;;;;;4859016;29;20036;-81
2022/05/01 05:29:21;;;;;;;10.48;6.45;;;10.30;99.90;;;;;;4876685;29;20108;-81
2022/05/01 05:31:47;;;;;;;12.40;5.70;;;10.40;99.90;;;;;;4895061;24;20060;-81
2022/05/01 05:34:12;;;;;;;10.18;5.53;;;11.30;99.90;;;;;;4896720;29;20346;-81
2022/05/01 05:36:39;;;;;;;9.55;5.15;;;10.60;99.90;;;;;;4896123;29;20032;-81
2022/05/01 05:39:08;;;;;;;12.95;5.80;;;11.00;99.90;;;;;;4897277;29;20092;-82
2022/05/01 05:41:34;;;;;;;12.10;5.45;;;10.80;99.90;;;;;;4899399;29;20020;-82
2022/05/01 05:44:00;;;;;;;10.25;6.05;;;10.90;99.90;;;;;;4899018;29;20029;-80
2022/05/01 05:46:26;;;;;;;9.52;5.32;;;10.80;99.90;;;;;;4894086;23;20052;-82
2022/05/01 05:48:51;;;;;;;10.23;6.25;;;10.80;99.90;;;;;;4881909;24;20132;-82
2022/05/01 05:51:30;;;;;;;12.52;6.25;;;11.30;99.90;;;;;;4875223;29;20048;-81
2022/05/01 05:54:04;;;;;;;12.15;5.88;;;10.90;99.90;;;;;;4894042;23;20515;-81
2022/05/01 05:57:08;;;;;;;16.15;6.25;;;10.90;99.90;;;;;;4892215;23;20068;-81
2022/05/01 05:59:34;;;;;;;8.98;5.55;;;13.10;99.90;;;;;;4868563;29;20056;-81
2022/05/01 06:02:00;;;;;;;10.05;6.10;;;11.10;99.90;;;;;;4872038;29;20029;-81
2022/05/01 06:04:41;;;;;;;13.35;6.50;;;11.30;99.90;;;;;;4872325;29;20097;-81
2022/05/01 06:07:15;;;;;;;12.55;5.68;;;11.50;99.90;;;;;;4872759;29;20172;-80
2022/05/01 06:09:56;;;;;;;10.50;5.22;;;11.60;99.90;;;;;;4889662;24;20057;-81
2022/05/01 06:12:28;;;;;;;8.35;5.05;;;11.00;99.40;;;;;;4871003;29;20280;-80
2022/05/01 06:15:09;;;;;;;12.13;6.45;;;12.90;99.90;;;;;;4872770;29;20033;-80
2022/05/01 06:17:45;;;;;;;18.20;6.90;;;12.00;99.10;;;;;;4878740;23;20065;-81
2022/05/01 06:20:11;;;;;;;15.65;5.82;;;12.10;99.10;;;;;;4872817;29;20092;-81
2022/05/01 06:22:50;;;;;;;12.43;7.07;;;12.30;98.90;;;;;;4873768;29;20424;-80
2022/05/01 06:25:16;;;;;;;13.88;6.60;;;12.10;98.00;;;;;;4871508;29;20056;-80
2022/05/01 06:27:45;;;;;;;15.88;8.70;;;12.50;98.10;;;;;;4888455;24;20120;-80
2022/05/01 06:30:27;;;;;;;17.23;9.20;;;12.60;98.30;;;;;;4889262;29;20025;-81
2022/05/01 06:32:59;;;;;;;19.42;9.23;;;13.40;98.90;;;;;;4891053;29;20327;-81
2022/05/01 06:35:31;;;;;;;17.50;8.73;;;12.30;97.90;;;;;;4889590;29;20044;-81
2022/05/01 06:38:04;;;;;;;15.30;8.02;;;12.80;97.60;;;;;;4891906;29;20147;-81
2022/05/01 06:40:48;;;;;;;14.02;8.23;;;12.90;97.20;;;;;;4893657;29;20151;-81
2022/05/01 06:43:40;;;;;;;18.17;9.10;;;13.10;97.00;;;;;;5102769;23;20071;-83
2022/05/01 06:46:07;;;;;;;15.10;8.10;;;10.60;95.80;;;;;;4890678;29;20025;-82
2022/05/01 06:48:35;;;;;;;14.88;7.93;;;14.00;96.80;;;;;;4904295;29;20053;-81
2022/05/01 06:51:12;;;;;;;15.13;6.97;;;13.50;96.90;;;;;;4902818;29;20592;-82
2022/05/01 06:53:39;;;;;;;19.65;8.85;;;13.70;95.80;;;;;;4902329;23;20081;-82
2022/05/01 06:56:23;;;;;;;15.05;7.90;;;14.20;95.80;;;;;;4886920;29;20641;-83
2022/05/01 06:58:58;;;;;;;15.73;7.97;;;15.00;95.60;;;;;;4883237;29;20029;-83
2022/05/01 07:01:24;;;;;;;13.80;7.40;;;15.20;95.50;;;;;;4887370;29;20021;-83
2022/05/01 07:03:59;;;;;;;12.77;6.95;;;14.00;95.60;;;;;;4900336;23;20064;-82
2022/05/01 07:06:53;;;;;;;12.35;7.30;;;14.50;95.40;;;;;;4888970;29;20032;-82
2022/05/01 07:09:21;;;;;;;11.23;6.50;;;14.60;94.30;;;;;;4871679;29;20313;-83
2022/05/01 07:11:50;;;;;;;10.80;7.30;;;14.40;95.30;;;;;;4888175;29;20047;-82
2022/05/01 07:17:35;;;;;;;13.35;7.75;;;15.30;94.00;;;;;;4920350;23;20076;-82
2022/05/01 07:20:24;;;;;;;12.68;7.35;;;13.70;93.70;;;;;;4877124;29;20033;-83
2022/05/01 07:23:21;;;;;;;14.27;7.45;;;15.10;93.70;;;;;;4835673;29;20069;-83
2022/05/01 07:26:33;;;;;;;12.98;7.20;;;15.00;94.50;;;;;;4988838;24;20138;-83
2022/05/01 07:55:59;;;;;;;12.37;7.07;;;15.80;92.40;;;;;;5058427;23;20064;-83
2022/05/01 08:30:59;;;;;;;14.85;8.05;;;16.10;91.60;;;;;;4516526;27;20080;-83
2022/05/01 08:34:05;;;;;;;14.15;7.93;;;17.00;91.10;;;;;;4896893;29;20041;-82
2022/05/01 08:37:07;;;;;;;12.05;7.53;;;15.50;91.00;;;;;;4866897;29;20107;-82
2022/05/01 08:39:58;;;;;;;11.15;6.78;;;17.10;90.80;;;;;;4820807;29;20608;-83
2022/05/01 08:42:58;;;;;;;13.25;6.70;;;16.70;90.30;;;;;;4803164;29;20066;-82
2022/05/01 08:45:55;;;;;;;19.17;7.47;;;16.60;90.00;;;;;;4770669;30;20047;-84
2022/05/01 08:49:06;;;;;;;15.05;8.65;;;14.70;90.90;;;;;;4771616;30;20050;-82
2022/05/01 08:51:52;;;;;;;14.93;7.47;;;17.60;91.00;;;;;;4802501;30;20035;-81
2022/05/01 08:54:17;;;;;;;14.37;6.90;;;13.40;89.30;;;;;;4777738;30;20232;-85
2022/05/01 08:56:45;;;;;;;10.63;6.40;;;16.70;90.60;;;;;;4773622;30;20581;-86
2022/05/01 08:59:15;;;;;;;12.18;6.30;;;17.30;89.20;;;;;;4756993;30;20047;-86
2022/05/01 09:01:43;;;;;;;11.30;6.07;;;17.80;88.20;;;;;;4772725;30;20103;-86
2022/05/01 09:04:12;;;;;;;11.65;6.53;;;17.70;86.90;;;;;;4757624;30;20317;-87
2022/05/01 09:06:39;;;;;;;9.55;5.28;;;18.10;84.70;;;;;;4756647;30;20035;-86
2022/05/01 09:09:09;;;;;;;8.13;3.72;;;18.60;79.30;;;;;;4779065;29;20049;-82
2022/05/01 09:17:25;;;;;;;6.40;2.83;;;18.30;63.50;;;;;;4891833;23;20560;-88
2022/05/01 09:22:26;;;;;;;5.78;2.90;;;19.20;59.10;;;;;;5045652;23;20359;-85
2022/05/01 09:24:53;;;;;;;6.32;3.05;;;19.40;63.10;;;;;;4868238;29;20323;-89
2022/05/01 09:27:32;;;;;;;5.00;2.75;;;19.50;60.50;;;;;;4880918;23;20119;-88
2022/05/01 09:33:21;;;;;;;8.80;2.80;;;21.30;56.00;;;;;;4870905;29;20388;-83
2022/05/01 09:36:42;;;;;;;8.13;3.03;;;20.40;55.80;;;;;;4895037;23;20143;-84
2022/05/01 09:39:25;;;;;;;6.30;3.22;;;20.40;54.30;;;;;;4808232;29;20405;-86
2022/05/01 09:50:46;;;;;;;6.45;3.30;;;21.70;53.40;;;;;;4881947;23;20064;-82
2022/05/01 09:56:00;;;;;;;5.97;2.95;;;21.50;49.60;;;;;;5007815;24;20440;-82
2022/05/01 09:58:30;;;;;;;6.38;2.97;;;21.40;50.00;;;;;;4867786;29;20053;-82
2022/05/01 10:01:16;;;;;;;3.55;2.20;;;21.10;50.80;;;;;;4865835;29;20028;-88
2022/05/01 10:03:48;;;;;;;6.97;2.85;;;20.80;50.30;;;;;;4867212;29;20025;-87
2022/05/01 10:06:16;;;;;;;3.10;2.28;;;20.70;50.50;;;;;;4884717;29;20067;-84
2022/05/01 10:08:47;;;;;;;6.15;2.50;;;21.10;48.20;;;;;;4866517;29;20030;-85
2022/05/01 10:11:19;;;;;;;3.42;2.33;;;21.60;49.00;;;;;;4866581;29;20105;-83
2022/05/01 10:13:56;;;;;;;3.88;2.97;;;22.20;48.90;;;;;;4871870;29;20643;-81
2022/05/01 10:16:21;;;;;;;5.35;2.67;;;22.50;49.10;;;;;;4875963;29;20092;-86
2022/05/01 10:18:47;;;;;;;4.25;2.70;;;22.20;48.30;;;;;;4868112;29;20108;-86
2022/05/01 10:21:16;;;;;;;6.47;2.60;;;21.50;47.90;;;;;;4916164;23;20053;-80
2022/05/01 10:24:21;;;;;;;6.72;3.50;;;21.30;49.80;;;;;;4868630;29;20033;-84
2022/05/01 10:27:23;;;;;;;8.23;2.80;;;20.50;49.80;;;;;;4794577;29;20072;-83
2022/05/01 10:46:41;;;;;;;5.40;2.58;;;22.40;49.60;;;;;;4935124;23;20288;-81
2022/05/01 10:49:51;;;;;;;6.07;2.72;;;22.00;50.30;;;;;;4883173;29;20076;-86
2022/05/01 10:53:13;;;;;;;6.10;3.22;;;23.00;46.80;;;;;;4883956;29;20756;-84
2022/05/01 10:56:33;;;;;;;10.32;3.08;;;23.60;43.30;;;;;;5030784;23;20056;-80
2022/05/01 10:59:38;;;;;;;5.70;2.80;;;22.90;44.80;;;;;;4865472;29;20157;-84
2022/05/01 11:02:38;;;;;;;10.07;3.22;;;23.70;45.40;;;;;;4863247;29;20228;-80
2022/05/01 11:07:48;;;;;;;8.10;3.00;;;23.90;41.40;;;;;;4883000;23;20052;-82
2022/05/01 12:33:07;;;;;;;3.88;2.22;;;26.20;37.50;;;;;;4828921;29;20783;-90
2022/05/01 12:36:01;;;;;;;4.32;2.30;;;26.00;36.40;;;;;;4828372;29;20049;-84
2022/05/01 12:38:38;;;;;;;4.43;2.35;;;24.90;34.50;;;;;;4806447;29;20075;-89
2022/05/01 13:04:42;;;;;;;;;;;;;;;;;;;;;
2022/05/01 13:12:31;;;;;;;3.58;1.83;;;26.20;32.90;;;;;;4983170;23;20765;-84
2022/05/01 13:15:15;;;;;;;6.85;1.80;;;27.60;34.40;;;;;;4884736;29;20041;-80
2022/05/01 13:34:47;;;;;;;4.40;2.17;;;26.60;33.40;;;;;;5103280;23;20060;-85
2022/05/01 13:47:22;;;;;;;2.78;2.00;;;28.50;34.30;;;;;;4791146;29;20195;-81
2022/05/01 13:49:51;;;;;;;4.00;2.17;;;26.70;34.10;;;;;;4775484;29;20670;-80
2022/05/01 13:52:17;;;;;;;5.07;2.00;;;23.40;32.00;;;;;;4771060;30;20088;-83
2022/05/01 13:54:45;;;;;;;2.75;2.05;;;26.50;34.20;;;;;;4771017;29;20063;-81
2022/05/01 14:00:49;;;;;;;3.50;2.05;;;28.40;34.20;;;;;;4840854;23;20072;-85
2022/05/01 14:03:18;;;;;;;6.45;2.70;;;27.20;32.20;;;;;;4832467;29;20089;-85
2022/05/01 14:05:44;;;;;;;2.85;1.98;;;29.10;35.20;;;;;;4905253;24;20060;-84
2022/05/01 14:08:23;;;;;;;3.72;2.22;;;27.50;34.40;;;;;;4883699;29;20019;-86
2022/05/01 14:11:02;;;;;;;3.85;2.30;;;27.40;35.80;;;;;;4866965;29;20039;-80
2022/05/01 14:13:37;;;;;;;3.13;2.10;;;26.60;33.40;;;;;;4863909;29;20079;-84
2022/05/01 14:16:31;;;;;;;2.95;2.28;;;26.20;33.90;;;;;;4882568;29;20031;-89
2022/05/01 14:27:34;;;;;;;7.25;3.67;;;27.60;39.80;;;;;;4158603;27;20090;-81
2022/05/01 14:33:20;;;;;;;5.45;3.10;;;24.60;47.30;;;;;;4974198;23;20106;-88
2022/05/01 14:36:02;;;;;;;6.03;3.10;;;24.90;49.40;;;;;;4849047;29;20643;-82
2022/05/01 14:39:03;;;;;;;8.40;2.85;;;23.50;49.70;;;;;;5116896;24;20060;-87
2022/05/01 14:42:18;;;;;;;7.57;2.90;;;24.40;49.70;;;;;;4791986;29;20436;-82
2022/05/01 14:57:02;;;;;;;4.45;3.05;;;22.00;52.50;;;;;;4774830;30;20042;-82
2022/05/01 15:11:24;;;;;;;5.65;2.83;;;22.00;52.50;;;;;;5228081;23;20061;-81
2022/05/01 15:13:57;;;;;;;5.35;2.67;;;22.80;52.30;;;;;;4866069;29;20690;-86
2022/05/01 15:16:49;;;;;;;6.43;3.28;;;23.50;50.80;;;;;;4884271;29;20115;-85
2022/05/01 15:23:31;;;;;;;5.65;3.40;;;23.60;49.50;;;;;;4883913;29;20088;-79
2022/05/01 15:26:06;;;;;;;6.25;3.80;;;26.00;48.00;;;;;;4825217;29;20206;-80
2022/05/01 15:32:20;;;;;;;6.68;2.60;;;23.20;50.50;;;;;;4846273;23;21350;-87
2022/05/01 15:34:58;;;;;;;4.60;3.20;;;22.00;53.20;;;;;;4882476;29;20021;-88
2022/05/01 15:37:39;;;;;;;6.53;2.85;;;21.40;52.30;;;;;;4883470;29;20031;-91
2022/05/01 15:40:10;;;;;;;5.32;2.85;;;18.40;52.50;;;;;;4883136;29;20543;-90
2022/05/01 15:42:43;;;;;;;6.28;3.28;;;20.90;55.10;;;;;;4882055;29;20674;-84
2022/05/01 15:45:09;;;;;;;4.28;2.80;;;20.80;56.90;;;;;;4893189;29;20514;-82
2022/05/01 15:47:36;;;;;;;12.35;3.08;;;20.80;57.00;;;;;;4901086;29;20016;-77
2022/05/01 15:55:54;;;;;;;28.13;12.38;;;20.90;57.70;;;;;;4844614;29;20088;-77
2022/05/01 15:58:23;;;;;;;10.15;7.25;;;20.10;55.40;;;;;;4844779;29;20037;-84
2022/05/01 16:00:50;;;;;;;8.70;5.88;;;20.60;55.70;;;;;;4845804;29;20033;-80
2022/05/01 16:03:15;;;;;;;4.85;2.72;;;20.40;56.40;;;;;;4841850;29;20045;-80
2022/05/01 16:05:45;;;;;;;7.28;3.10;;;19.90;57.70;;;;;;4843436;29;20037;-80
2022/05/01 16:08:14;;;;;;;5.63;3.13;;;19.60;58.10;;;;;;4842740;29;20037;-82
2022/05/01 16:10:53;;;;;;;3.78;2.50;;;19.00;58.30;;;;;;4842593;29;20098;-78
2022/05/01 16:13:30;;;;;;;5.80;2.70;;;17.10;59.20;;;;;;4847184;29;20025;-79
2022/05/01 16:16:24;;;;;;;3.13;2.50;;;18.90;60.80;;;;;;4830416;29;20114;-79
2022/05/01 16:18:58;;;;;;;7.90;2.60;;;18.50;62.30;;;;;;4828434;29;20026;-80
2022/05/01 16:21:53;;;;;;;4.95;2.65;;;18.30;62.70;;;;;;4817635;29;20030;-79
2022/05/01 16:24:29;;;;;;;5.90;2.92;;;18.20;64.00;;;;;;4757804;30;20699;-79
2022/05/01 16:27:08;;;;;;;8.10;2.50;;;18.10;63.80;;;;;;4758719;30;20027;-79
2022/05/01 16:29:53;;;;;;;4.53;2.67;;;17.90;64.90;;;;;;4772318;29;20043;-79
2022/05/01 16:32:42;;;;;;;11.13;3.08;;;18.40;65.00;;;;;;4791675;29;20051;-79
2022/05/01 16:35:10;;;;;;;3.70;2.47;;;18.10;67.70;;;;;;4791829;29;20130;-80
2022/05/01 16:38:09;;;;;;;3.85;2.95;;;17.50;69.60;;;;;;4793258;29;20043;-81
2022/05/01 16:40:40;;;;;;;4.95;2.83;;;17.30;71.70;;;;;;4802552;29;20694;-79
2022/05/01 16:43:12;;;;;;;4.97;2.45;;;17.20;74.00;;;;;;4795272;29;20159;-81
2022/05/01 16:45:40;;;;;;;4.13;2.28;;;17.00;74.50;;;;;;4794321;29;20034;-79
2022/05/01 16:48:08;;;;;;;5.70;2.60;;;17.00;77.90;;;;;;4782124;29;20027;-76
2022/05/01 16:50:36;;;;;;;3.95;2.20;;;17.00;78.00;;;;;;4792223;29;20039;-79
2022/05/01 16:53:04;;;;;;;3.97;2.40;;;16.90;80.10;;;;;;4799822;29;20721;-81
2022/05/01 16:55:38;;;;;;;4.32;2.80;;;16.70;82.30;;;;;;4808226;29;20035;-83
2022/05/01 16:58:05;;;;;;;3.85;2.20;;;16.60;84.70;;;;;;4803910;29;20030;-77
2022/05/01 17:00:35;;;;;;;6.72;2.88;;;16.30;86.30;;;;;;4821638;29;20108;-82
2022/05/01 17:03:27;;;;;;;7.20;2.35;;;17.30;87.40;;;;;;4862814;29;20030;-78
2022/05/01 17:06:03;;;;;;;7.60;2.95;;;16.20;87.80;;;;;;4828687;29;20356;-83
2022/05/01 17:08:40;;;;;;;5.60;2.42;;;15.90;88.70;;;;;;4821462;29;20175;-78
2022/05/01 17:11:11;;;;;;;6.03;2.88;;;16.10;88.80;;;;;;4818389;29;20050;-79
2022/05/01 17:14:08;;;;;;;3.85;2.42;;;16.00;89.90;;;;;;4825939;29;20136;-79
2022/05/01 17:16:46;;;;;;;9.68;4.38;;;16.00;90.10;;;;;;4819988;29;20030;-79
2022/05/01 17:19:26;;;;;;;7.55;3.53;;;15.70;90.40;;;;;;4843465;29;20047;-79
2022/05/01 17:22:03;;;;;;;3.85;2.85;;;15.70;90.90;;;;;;4837802;29;20731;-80
2022/05/01 17:25:20;;;;;;;4.25;2.70;;;15.60;91.00;;;;;;4849685;29;20038;-80
2022/05/01 17:27:51;;;;;;;3.17;2.58;;;15.60;91.20;;;;;;4778207;30;20114;-80
2022/05/01 17:30:21;;;;;;;3.35;2.22;;;15.50;91.60;;;;;;4763543;30;20039;-78
2022/05/01 17:33:11;;;;;;;2.65;1.98;;;15.30;92.00;;;;;;4792156;30;20119;-81
2022/05/01 17:35:37;;;;;;;2.28;1.90;;;15.20;92.50;;;;;;4796586;30;20031;-82
2022/05/01 17:38:07;;;;;;;4.43;2.30;;;15.10;93.00;;;;;;4792929;30;20067;-82
2022/05/01 17:40:34;;;;;;;4.60;2.85;;;15.20;92.80;;;;;;4795958;30;20123;-82
